sensor_id;sensor_type;location;lat;lon;timestamp;temperature;humidity
13049;DHT22;6591;51.446;5.404;2022-12-05T00:01:35;5.30;99.90
13049;DHT22;6591;51.446;5.404;2022-12-05T00:04:10;5.30;99.90
13049;DHT22;6591;51.446;5.404;2022-12-05T00:06:40;6.80;99.90
13049;DHT22;6591;51.446;5.404;2022-12-05T00:09:09;5.30;99.90
13049;DHT22;6591;51.446;5.404;2022-12-05T00:11:39;5.30;99.90
13049;DHT22;6591;51.446;5.404;2022-12-05T00:14:09;5.30;99.90
13049;DHT22;6591;51.446;5.404;2022-12-05T00:16:38;5.30;99.90
13049;DHT22;6591;51.446;5.404;2022-12-05T00:19:09;5.30;99.90
13049;DHT22;6591;51.446;5.404;2022-12-05T00:21:38;5.30;99.90
13049;DHT22;6591;51.446;5.404;2022-12-05T00:24:07;5.30;99.90
13049;DHT22;6591;51.446;5.404;2022-12-05T00:26:37;5.40;99.90
13049;DHT22;6591;51.446;5.404;2022-12-05T00:29:06;5.40;99.90
13049;DHT22;6591;51.446;5.404;2022-12-05T00:31:33;5.40;99.90
13049;DHT22;6591;51.446;5.404;2022-12-05T00:34:01;5.40;99.90
13049;DHT22;6591;51.446;5.404;2022-12-05T00:36:30;5.40;99.90
13049;DHT22;6591;51.446;5.404;2022-12-05T00:39:02;5.40;99.90
13049;DHT22;6591;51.446;5.404;2022-12-05T00:41:31;5.40;99.90
13049;DHT22;6591;51.446;5.404;2022-12-05T00:44:00;5.40;99.90
13049;DHT22;6591;51.446;5.404;2022-12-05T00:46:29;5.40;99.90
13049;DHT22;6591;51.446;5.404;2022-12-05T00:48:59;5.40;99.90
13049;DHT22;6591;51.446;5.404;2022-12-05T00:51:35;5.40;99.90
13049;DHT22;6591;51.446;5.404;2022-12-05T00:54:10;5.40;99.90
13049;DHT22;6591;51.446;5.404;2022-12-05T00:56:39;5.40;99.90
13049;DHT22;6591;51.446;5.404;2022-12-05T00:59:07;5.40;99.90
13049;DHT22;6591;51.446;5.404;2022-12-05T01:01:39;5.40;99.90
13049;DHT22;6591;51.446;5.404;2022-12-05T01:04:11;5.40;99.90
13049;DHT22;6591;51.446;5.404;2022-12-05T01:06:42;5.40;99.90
13049;DHT22;6591;51.446;5.404;2022-12-05T01:09:15;5.40;99.90
13049;DHT22;6591;51.446;5.404;2022-12-05T01:11:44;5.60;99.90
13049;DHT22;6591;51.446;5.404;2022-12-05T01:14:13;6.30;99.90
13049;DHT22;6591;51.446;5.404;2022-12-05T01:16:44;5.50;99.90
13049;DHT22;6591;51.446;5.404;2022-12-05T01:19:26;5.50;99.90
13049;DHT22;6591;51.446;5.404;2022-12-05T01:21:55;5.50;99.90
13049;DHT22;6591;51.446;5.404;2022-12-05T01:24:24;5.50;99.90
13049;DHT22;6591;51.446;5.404;2022-12-05T01:26:52;5.50;99.90
13049;DHT22;6591;51.446;5.404;2022-12-05T01:29:21;5.70;99.90
13049;DHT22;6591;51.446;5.404;2022-12-05T01:31:49;6.10;99.90
13049;DHT22;6591;51.446;5.404;2022-12-05T01:34:17;5.80;99.90
13049;DHT22;6591;51.446;5.404;2022-12-05T01:36:45;6.60;99.90
13049;DHT22;6591;51.446;5.404;2022-12-05T01:39:13;5.50;99.90
13049;DHT22;6591;51.446;5.404;2022-12-05T01:41:43;5.50;99.90
13049;DHT22;6591;51.446;5.404;2022-12-05T01:49:24;7.20;99.90
13049;DHT22;6591;51.446;5.404;2022-12-05T01:52:02;6.50;99.90
13049;DHT22;6591;51.446;5.404;2022-12-05T01:54:34;5.60;99.90
13049;DHT22;6591;51.446;5.404;2022-12-05T01:57:05;5.60;99.90
13049;DHT22;6591;51.446;5.404;2022-12-05T01:59:40;5.60;99.90
13049;DHT22;6591;51.446;5.404;2022-12-05T02:02:10;5.60;99.90
13049;DHT22;6591;51.446;5.404;2022-12-05T02:04:45;5.60;99.90
13049;DHT22;6591;51.446;5.404;2022-12-05T02:07:23;5.60;99.90
13049;DHT22;6591;51.446;5.404;2022-12-05T02:09:50;5.60;99.90
13049;DHT22;6591;51.446;5.404;2022-12-05T02:12:18;5.60;99.90
13049;DHT22;6591;51.446;5.404;2022-12-05T02:15:17;5.60;99.90
13049;DHT22;6591;51.446;5.404;2022-12-05T02:27:54;5.50;99.90
13049;DHT22;6591;51.446;5.404;2022-12-05T02:30:48;5.50;99.90
13049;DHT22;6591;51.446;5.404;2022-12-05T02:33:51;5.50;99.90
13049;DHT22;6591;51.446;5.404;2022-12-05T02:36:40;5.50;99.90
13049;DHT22;6591;51.446;5.404;2022-12-05T02:39:39;5.40;99.90
13049;DHT22;6591;51.446;5.404;2022-12-05T02:45:09;5.50;99.90
13049;DHT22;6591;51.446;5.404;2022-12-05T02:47:48;5.50;99.90
13049;DHT22;6591;51.446;5.404;2022-12-05T02:50:24;5.50;99.90
13049;DHT22;6591;51.446;5.404;2022-12-05T02:52:57;5.50;99.90
13049;DHT22;6591;51.446;5.404;2022-12-05T02:55:30;5.50;99.90
13049;DHT22;6591;51.446;5.404;2022-12-05T02:58:02;5.50;99.90
13049;DHT22;6591;51.446;5.404;2022-12-05T03:00:34;5.50;99.90
13049;DHT22;6591;51.446;5.404;2022-12-05T03:03:13;5.50;99.90
13049;DHT22;6591;51.446;5.404;2022-12-05T03:06:08;5.50;99.90
13049;DHT22;6591;51.446;5.404;2022-12-05T03:08:48;5.50;99.90
13049;DHT22;6591;51.446;5.404;2022-12-05T03:11:27;5.50;99.90
13049;DHT22;6591;51.446;5.404;2022-12-05T03:13:59;5.50;99.90
13049;DHT22;6591;51.446;5.404;2022-12-05T03:16:32;5.50;99.90
13049;DHT22;6591;51.446;5.404;2022-12-05T03:19:10;5.50;99.90
13049;DHT22;6591;51.446;5.404;2022-12-05T03:21:55;5.50;99.90
13049;DHT22;6591;51.446;5.404;2022-12-05T03:24:28;5.50;99.90
13049;DHT22;6591;51.446;5.404;2022-12-05T03:29:56;5.50;99.90
13049;DHT22;6591;51.446;5.404;2022-12-05T03:33:00;5.50;99.90
13049;DHT22;6591;51.446;5.404;2022-12-05T03:35:58;5.50;99.90
13049;DHT22;6591;51.446;5.404;2022-12-05T03:38:32;5.50;99.90
13049;DHT22;6591;51.446;5.404;2022-12-05T03:41:17;5.50;99.90
13049;DHT22;6591;51.446;5.404;2022-12-05T03:46:59;5.50;99.90
13049;DHT22;6591;51.446;5.404;2022-12-05T03:49:39;5.50;99.90
13049;DHT22;6591;51.446;5.404;2022-12-05T03:52:25;5.50;99.90
13049;DHT22;6591;51.446;5.404;2022-12-05T03:55:18;5.50;99.90
13049;DHT22;6591;51.446;5.404;2022-12-05T03:57:54;5.50;99.90
13049;DHT22;6591;51.446;5.404;2022-12-05T04:00:27;5.50;99.90
13049;DHT22;6591;51.446;5.404;2022-12-05T04:03:27;5.50;99.90
13049;DHT22;6591;51.446;5.404;2022-12-05T04:06:20;5.50;99.90
13049;DHT22;6591;51.446;5.404;2022-12-05T04:08:57;5.50;99.90
13049;DHT22;6591;51.446;5.404;2022-12-05T04:11:33;5.80;99.90
13049;DHT22;6591;51.446;5.404;2022-12-05T04:14:11;5.50;99.90
13049;DHT22;6591;51.446;5.404;2022-12-05T04:16:49;5.50;99.90
13049;DHT22;6591;51.446;5.404;2022-12-05T04:19:45;5.50;99.90
13049;DHT22;6591;51.446;5.404;2022-12-05T04:22:36;5.60;99.90
13049;DHT22;6591;51.446;5.404;2022-12-05T04:25:08;5.50;99.90
13049;DHT22;6591;51.446;5.404;2022-12-05T04:28:14;5.50;99.90
13049;DHT22;6591;51.446;5.404;2022-12-05T04:30:53;5.50;99.90
13049;DHT22;6591;51.446;5.404;2022-12-05T04:33:45;5.60;99.90
13049;DHT22;6591;51.446;5.404;2022-12-05T04:36:31;5.60;99.90
13049;DHT22;6591;51.446;5.404;2022-12-05T04:39:12;5.60;99.90
13049;DHT22;6591;51.446;5.404;2022-12-05T04:41:49;5.60;99.90
13049;DHT22;6591;51.446;5.404;2022-12-05T04:44:24;5.60;99.90
13049;DHT22;6591;51.446;5.404;2022-12-05T04:46:56;5.60;99.90
13049;DHT22;6591;51.446;5.404;2022-12-05T04:49:28;5.60;99.90
13049;DHT22;6591;51.446;5.404;2022-12-05T04:52:03;5.60;99.90
13049;DHT22;6591;51.446;5.404;2022-12-05T04:54:41;5.60;99.90
13049;DHT22;6591;51.446;5.404;2022-12-05T04:57:28;5.60;99.90
13049;DHT22;6591;51.446;5.404;2022-12-05T05:00:06;5.70;99.90
13049;DHT22;6591;51.446;5.404;2022-12-05T05:02:55;5.60;99.90
13049;DHT22;6591;51.446;5.404;2022-12-05T05:05:34;5.70;99.90
13049;DHT22;6591;51.446;5.404;2022-12-05T05:08:03;5.70;99.90
13049;DHT22;6591;51.446;5.404;2022-12-05T05:10:32;5.70;99.90
13049;DHT22;6591;51.446;5.404;2022-12-05T05:13:04;5.70;99.90
13049;DHT22;6591;51.446;5.404;2022-12-05T05:15:31;5.70;99.90
13049;DHT22;6591;51.446;5.404;2022-12-05T05:17:58;5.80;99.90
13049;DHT22;6591;51.446;5.404;2022-12-05T05:20:25;5.70;99.90
13049;DHT22;6591;51.446;5.404;2022-12-05T05:22:56;5.80;99.90
13049;DHT22;6591;51.446;5.404;2022-12-05T05:25:24;5.80;99.90
13049;DHT22;6591;51.446;5.404;2022-12-05T05:27:54;5.80;99.90
13049;DHT22;6591;51.446;5.404;2022-12-05T05:30:23;5.80;99.90
13049;DHT22;6591;51.446;5.404;2022-12-05T05:32:50;5.80;99.90
13049;DHT22;6591;51.446;5.404;2022-12-05T05:35:18;5.80;99.90
13049;DHT22;6591;51.446;5.404;2022-12-05T05:37:46;5.80;99.90
13049;DHT22;6591;51.446;5.404;2022-12-05T05:40:13;5.80;99.90
13049;DHT22;6591;51.446;5.404;2022-12-05T05:42:45;5.90;99.90
13049;DHT22;6591;51.446;5.404;2022-12-05T05:45:14;5.90;99.90
13049;DHT22;6591;51.446;5.404;2022-12-05T05:47:42;5.90;99.90
13049;DHT22;6591;51.446;5.404;2022-12-05T05:50:10;5.90;99.90
13049;DHT22;6591;51.446;5.404;2022-12-05T05:52:45;5.90;99.90
13049;DHT22;6591;51.446;5.404;2022-12-05T05:55:12;5.90;99.90
13049;DHT22;6591;51.446;5.404;2022-12-05T05:57:38;5.90;99.90
13049;DHT22;6591;51.446;5.404;2022-12-05T06:00:06;6.00;99.90
13049;DHT22;6591;51.446;5.404;2022-12-05T06:02:34;5.90;99.90
13049;DHT22;6591;51.446;5.404;2022-12-05T06:05:02;5.90;99.90
13049;DHT22;6591;51.446;5.404;2022-12-05T06:07:30;5.90;99.90
13049;DHT22;6591;51.446;5.404;2022-12-05T06:09:57;6.00;99.90
13049;DHT22;6591;51.446;5.404;2022-12-05T06:12:24;5.90;99.90
13049;DHT22;6591;51.446;5.404;2022-12-05T06:14:51;6.60;99.90
13049;DHT22;6591;51.446;5.404;2022-12-05T06:17:19;5.90;99.90
13049;DHT22;6591;51.446;5.404;2022-12-05T06:19:46;5.90;99.90
13049;DHT22;6591;51.446;5.404;2022-12-05T06:22:12;5.90;99.90
13049;DHT22;6591;51.446;5.404;2022-12-05T06:24:39;5.90;99.90
13049;DHT22;6591;51.446;5.404;2022-12-05T06:27:07;7.60;99.90
13049;DHT22;6591;51.446;5.404;2022-12-05T06:29:34;5.90;99.90
13049;DHT22;6591;51.446;5.404;2022-12-05T06:32:01;5.90;99.90
13049;DHT22;6591;51.446;5.404;2022-12-05T06:34:29;5.90;99.90
13049;DHT22;6591;51.446;5.404;2022-12-05T06:36:58;5.90;99.90
13049;DHT22;6591;51.446;5.404;2022-12-05T06:39:25;5.90;99.90
13049;DHT22;6591;51.446;5.404;2022-12-05T06:41:53;5.90;99.90
13049;DHT22;6591;51.446;5.404;2022-12-05T06:44:20;7.20;99.90
13049;DHT22;6591;51.446;5.404;2022-12-05T06:46:47;5.90;99.90
13049;DHT22;6591;51.446;5.404;2022-12-05T06:49:16;5.90;99.90
13049;DHT22;6591;51.446;5.404;2022-12-05T06:51:43;5.90;99.90
13049;DHT22;6591;51.446;5.404;2022-12-05T06:54:11;5.90;99.90
13049;DHT22;6591;51.446;5.404;2022-12-05T06:56:39;5.90;99.90
13049;DHT22;6591;51.446;5.404;2022-12-05T06:59:06;5.90;99.90
13049;DHT22;6591;51.446;5.404;2022-12-05T07:01:33;5.90;99.90
13049;DHT22;6591;51.446;5.404;2022-12-05T07:04:13;5.90;99.90
13049;DHT22;6591;51.446;5.404;2022-12-05T07:06:46;6.00;99.90
13049;DHT22;6591;51.446;5.404;2022-12-05T07:09:22;6.00;99.90
13049;DHT22;6591;51.446;5.404;2022-12-05T07:12:15;6.90;99.90
13049;DHT22;6591;51.446;5.404;2022-12-05T07:14:44;6.00;99.90
13049;DHT22;6591;51.446;5.404;2022-12-05T07:17:18;5.90;99.90
13049;DHT22;6591;51.446;5.404;2022-12-05T07:19:50;6.00;99.90
13049;DHT22;6591;51.446;5.404;2022-12-05T07:22:20;6.00;99.90
13049;DHT22;6591;51.446;5.404;2022-12-05T07:24:50;6.00;99.90
13049;DHT22;6591;51.446;5.404;2022-12-05T07:27:18;6.00;99.90
13049;DHT22;6591;51.446;5.404;2022-12-05T07:29:53;6.00;99.90
13049;DHT22;6591;51.446;5.404;2022-12-05T07:32:20;6.10;99.90
13049;DHT22;6591;51.446;5.404;2022-12-05T07:34:46;6.10;99.90
13049;DHT22;6591;51.446;5.404;2022-12-05T07:37:20;6.10;99.90
13049;DHT22;6591;51.446;5.404;2022-12-05T07:39:47;6.10;99.90
13049;DHT22;6591;51.446;5.404;2022-12-05T07:42:14;6.10;99.90
13049;DHT22;6591;51.446;5.404;2022-12-05T07:44:41;6.10;99.90
13049;DHT22;6591;51.446;5.404;2022-12-05T07:47:08;6.10;99.90
13049;DHT22;6591;51.446;5.404;2022-12-05T07:49:35;6.10;99.90
13049;DHT22;6591;51.446;5.404;2022-12-05T07:52:02;6.10;99.90
13049;DHT22;6591;51.446;5.404;2022-12-05T07:54:29;6.00;99.90
13049;DHT22;6591;51.446;5.404;2022-12-05T07:56:56;6.10;99.90
13049;DHT22;6591;51.446;5.404;2022-12-05T07:59:23;6.10;99.90
13049;DHT22;6591;51.446;5.404;2022-12-05T08:01:50;6.10;99.90
13049;DHT22;6591;51.446;5.404;2022-12-05T08:04:17;6.10;99.90
13049;DHT22;6591;51.446;5.404;2022-12-05T08:06:44;6.10;99.90
13049;DHT22;6591;51.446;5.404;2022-12-05T08:09:11;6.10;99.90
13049;DHT22;6591;51.446;5.404;2022-12-05T08:11:38;6.20;99.90
13049;DHT22;6591;51.446;5.404;2022-12-05T08:14:06;6.20;99.90
13049;DHT22;6591;51.446;5.404;2022-12-05T08:16:33;6.20;99.90
13049;DHT22;6591;51.446;5.404;2022-12-05T08:19:03;6.20;99.90
13049;DHT22;6591;51.446;5.404;2022-12-05T08:21:32;6.20;99.90
13049;DHT22;6591;51.446;5.404;2022-12-05T08:24:03;7.10;99.90
13049;DHT22;6591;51.446;5.404;2022-12-05T08:26:34;6.30;99.90
13049;DHT22;6591;51.446;5.404;2022-12-05T08:31:34;6.30;99.90
13049;DHT22;6591;51.446;5.404;2022-12-05T08:34:04;6.30;99.90
13049;DHT22;6591;51.446;5.404;2022-12-05T08:36:31;6.40;99.90
13049;DHT22;6591;51.446;5.404;2022-12-05T08:39:00;6.30;99.90
13049;DHT22;6591;51.446;5.404;2022-12-05T08:41:32;6.30;99.90
13049;DHT22;6591;51.446;5.404;2022-12-05T08:44:01;8.50;99.90
13049;DHT22;6591;51.446;5.404;2022-12-05T08:46:32;6.30;99.90
13049;DHT22;6591;51.446;5.404;2022-12-05T08:49:03;6.30;99.90
13049;DHT22;6591;51.446;5.404;2022-12-05T08:51:31;6.30;99.90
13049;DHT22;6591;51.446;5.404;2022-12-05T08:54:01;6.30;99.90
13049;DHT22;6591;51.446;5.404;2022-12-05T08:56:28;6.30;99.90
13049;DHT22;6591;51.446;5.404;2022-12-05T08:58:55;6.30;99.90
13049;DHT22;6591;51.446;5.404;2022-12-05T09:01:31;6.30;99.90
13049;DHT22;6591;51.446;5.404;2022-12-05T09:04:02;6.40;99.90
13049;DHT22;6591;51.446;5.404;2022-12-05T09:06:31;6.40;99.90
13049;DHT22;6591;51.446;5.404;2022-12-05T09:09:02;6.40;99.90
13049;DHT22;6591;51.446;5.404;2022-12-05T09:11:35;6.40;99.90
13049;DHT22;6591;51.446;5.404;2022-12-05T09:14:06;6.40;99.90
13049;DHT22;6591;51.446;5.404;2022-12-05T09:16:35;6.50;99.90
13049;DHT22;6591;51.446;5.404;2022-12-05T09:19:10;6.50;99.90
13049;DHT22;6591;51.446;5.404;2022-12-05T09:21:40;6.50;99.90
13049;DHT22;6591;51.446;5.404;2022-12-05T09:24:10;6.50;99.90
13049;DHT22;6591;51.446;5.404;2022-12-05T09:26:38;8.50;99.90
13049;DHT22;6591;51.446;5.404;2022-12-05T09:29:05;6.50;99.90
13049;DHT22;6591;51.446;5.404;2022-12-05T09:31:41;6.50;99.90
13049;DHT22;6591;51.446;5.404;2022-12-05T09:34:09;6.50;99.90
13049;DHT22;6591;51.446;5.404;2022-12-05T09:36:36;6.50;99.90
13049;DHT22;6591;51.446;5.404;2022-12-05T09:39:05;6.50;99.90
13049;DHT22;6591;51.446;5.404;2022-12-05T09:48:04;6.40;99.90
13049;DHT22;6591;51.446;5.404;2022-12-05T09:50:41;6.70;99.90
13049;DHT22;6591;51.446;5.404;2022-12-05T10:09:47;8.60;99.90
13049;DHT22;6591;51.446;5.404;2022-12-05T10:16:10;6.80;99.90
13049;DHT22;6591;51.446;5.404;2022-12-05T10:18:53;6.80;99.90
13049;DHT22;6591;51.446;5.404;2022-12-05T10:21:51;6.80;99.90
13049;DHT22;6591;51.446;5.404;2022-12-05T10:24:32;6.80;99.90
13049;DHT22;6591;51.446;5.404;2022-12-05T10:27:12;6.90;99.90
13049;DHT22;6591;51.446;5.404;2022-12-05T10:30:05;6.90;99.90
13049;DHT22;6591;51.446;5.404;2022-12-05T10:32:55;6.60;99.90
13049;DHT22;6591;51.446;5.404;2022-12-05T10:35:38;6.80;99.90
13049;DHT22;6591;51.446;5.404;2022-12-05T10:40:54;8.60;99.90
13049;DHT22;6591;51.446;5.404;2022-12-05T10:43:29;6.90;99.90
13049;DHT22;6591;51.446;5.404;2022-12-05T10:45:58;6.90;99.90
13049;DHT22;6591;51.446;5.404;2022-12-05T10:48:28;6.90;99.90
13049;DHT22;6591;51.446;5.404;2022-12-05T10:50:57;6.90;99.90
13049;DHT22;6591;51.446;5.404;2022-12-05T10:53:40;6.90;99.90
13049;DHT22;6591;51.446;5.404;2022-12-05T10:56:42;6.90;99.90
13049;DHT22;6591;51.446;5.404;2022-12-05T10:59:18;6.90;99.90
13049;DHT22;6591;51.446;5.404;2022-12-05T11:01:52;7.00;99.90
13049;DHT22;6591;51.446;5.404;2022-12-05T11:04:29;7.00;99.90
13049;DHT22;6591;51.446;5.404;2022-12-05T11:07:00;7.00;99.90
13049;DHT22;6591;51.446;5.404;2022-12-05T11:09:34;8.90;99.90
13049;DHT22;6591;51.446;5.404;2022-12-05T11:12:19;8.10;99.90
13049;DHT22;6591;51.446;5.404;2022-12-05T11:15:20;7.00;99.90
13049;DHT22;6591;51.446;5.404;2022-12-05T11:17:55;7.00;99.90
13049;DHT22;6591;51.446;5.404;2022-12-05T11:22:54;6.90;99.90
13049;DHT22;6591;51.446;5.404;2022-12-05T11:25:23;6.90;99.90
13049;DHT22;6591;51.446;5.404;2022-12-05T11:27:55;6.80;99.90
13049;DHT22;6591;51.446;5.404;2022-12-05T11:30:28;6.80;99.90
13049;DHT22;6591;51.446;5.404;2022-12-05T11:33:20;8.60;99.90
13049;DHT22;6591;51.446;5.404;2022-12-05T11:35:51;6.80;99.90
13049;DHT22;6591;51.446;5.404;2022-12-05T11:38:24;6.80;99.90
13049;DHT22;6591;51.446;5.404;2022-12-05T11:51:15;6.90;99.90
13049;DHT22;6591;51.446;5.404;2022-12-05T11:53:57;6.90;99.90
13049;DHT22;6591;51.446;5.404;2022-12-05T11:56:46;7.00;99.90
13049;DHT22;6591;51.446;5.404;2022-12-05T12:02:19;7.10;99.90
13049;DHT22;6591;51.446;5.404;2022-12-05T12:05:55;7.10;99.90
13049;DHT22;6591;51.446;5.404;2022-12-05T12:08:48;7.20;99.90
13049;DHT22;6591;51.446;5.404;2022-12-05T12:14:55;7.30;99.90
13049;DHT22;6591;51.446;5.404;2022-12-05T12:17:45;7.30;99.90
13049;DHT22;6591;51.446;5.404;2022-12-05T12:24:24;7.20;99.90
13049;DHT22;6591;51.446;5.404;2022-12-05T12:27:26;7.30;99.90
13049;DHT22;6591;51.446;5.404;2022-12-05T12:30:15;7.20;99.90
13049;DHT22;6591;51.446;5.404;2022-12-05T12:33:12;7.20;99.90
13049;DHT22;6591;51.446;5.404;2022-12-05T12:36:10;7.10;99.90
13049;DHT22;6591;51.446;5.404;2022-12-05T12:50:33;7.10;99.90
13049;DHT22;6591;51.446;5.404;2022-12-05T12:53:35;7.20;99.90
13049;DHT22;6591;51.446;5.404;2022-12-05T12:56:20;7.10;99.90
13049;DHT22;6591;51.446;5.404;2022-12-05T13:02:28;7.10;99.90
13049;DHT22;6591;51.446;5.404;2022-12-05T13:05:26;7.10;99.90
13049;DHT22;6591;51.446;5.404;2022-12-05T13:08:05;7.00;99.90
13049;DHT22;6591;51.446;5.404;2022-12-05T13:10:44;7.00;99.90
13049;DHT22;6591;51.446;5.404;2022-12-05T13:13:19;6.90;99.90
13049;DHT22;6591;51.446;5.404;2022-12-05T13:15:57;6.90;99.90
13049;DHT22;6591;51.446;5.404;2022-12-05T13:18:27;6.90;99.90
13049;DHT22;6591;51.446;5.404;2022-12-05T13:20:57;6.90;99.90
13049;DHT22;6591;51.446;5.404;2022-12-05T13:23:28;6.80;99.90
13049;DHT22;6591;51.446;5.404;2022-12-05T13:25:59;6.80;99.90
13049;DHT22;6591;51.446;5.404;2022-12-05T13:28:51;6.80;99.90
13049;DHT22;6591;51.446;5.404;2022-12-05T13:31:53;6.80;99.90
13049;DHT22;6591;51.446;5.404;2022-12-05T13:34:48;6.80;99.90
13049;DHT22;6591;51.446;5.404;2022-12-05T13:37:21;6.80;99.90
13049;DHT22;6591;51.446;5.404;2022-12-05T13:40:27;6.80;99.90
13049;DHT22;6591;51.446;5.404;2022-12-05T13:43:18;6.80;99.90
13049;DHT22;6591;51.446;5.404;2022-12-05T13:46:09;6.80;99.90
13049;DHT22;6591;51.446;5.404;2022-12-05T13:48:47;6.80;99.90
13049;DHT22;6591;51.446;5.404;2022-12-05T13:51:29;7.10;99.90
13049;DHT22;6591;51.446;5.404;2022-12-05T13:54:11;6.80;99.90
13049;DHT22;6591;51.446;5.404;2022-12-05T13:56:56;6.90;99.90
13049;DHT22;6591;51.446;5.404;2022-12-05T14:07:48;6.90;99.90
13049;DHT22;6591;51.446;5.404;2022-12-05T14:13:01;6.90;99.90
13049;DHT22;6591;51.446;5.404;2022-12-05T14:19:01;7.00;99.90
13049;DHT22;6591;51.446;5.404;2022-12-05T14:21:59;7.00;99.90
13049;DHT22;6591;51.446;5.404;2022-12-05T14:28:19;7.00;99.90
13049;DHT22;6591;51.446;5.404;2022-12-05T14:34:23;7.10;99.90
13049;DHT22;6591;51.446;5.404;2022-12-05T14:39:49;7.10;99.90
13049;DHT22;6591;51.446;5.404;2022-12-05T14:42:22;8.00;99.90
13049;DHT22;6591;51.446;5.404;2022-12-05T14:44:59;7.10;99.90
13049;DHT22;6591;51.446;5.404;2022-12-05T14:47:31;7.10;99.90
13049;DHT22;6591;51.446;5.404;2022-12-05T14:56:16;7.10;99.90
13049;DHT22;6591;51.446;5.404;2022-12-05T14:58:56;7.10;99.90
13049;DHT22;6591;51.446;5.404;2022-12-05T15:01:32;7.20;99.90
13049;DHT22;6591;51.446;5.404;2022-12-05T15:06:55;7.10;99.90
13049;DHT22;6591;51.446;5.404;2022-12-05T15:12:39;7.10;99.90
13049;DHT22;6591;51.446;5.404;2022-12-05T15:15:29;7.10;99.90
13049;DHT22;6591;51.446;5.404;2022-12-05T15:24:04;7.10;99.90
13049;DHT22;6591;51.446;5.404;2022-12-05T15:26:55;7.10;99.90
13049;DHT22;6591;51.446;5.404;2022-12-05T15:29:27;7.10;99.90
13049;DHT22;6591;51.446;5.404;2022-12-05T15:32:00;7.10;99.90
13049;DHT22;6591;51.446;5.404;2022-12-05T15:34:43;7.10;99.90
13049;DHT22;6591;51.446;5.404;2022-12-05T15:37:23;7.10;99.90
13049;DHT22;6591;51.446;5.404;2022-12-05T15:40:09;7.10;99.90
13049;DHT22;6591;51.446;5.404;2022-12-05T15:42:43;7.10;99.90
13049;DHT22;6591;51.446;5.404;2022-12-05T15:47:44;7.10;99.90
13049;DHT22;6591;51.446;5.404;2022-12-05T15:53:12;7.10;99.90
13049;DHT22;6591;51.446;5.404;2022-12-05T15:55:47;7.10;99.90
13049;DHT22;6591;51.446;5.404;2022-12-05T15:58:26;7.10;99.90
13049;DHT22;6591;51.446;5.404;2022-12-05T16:01:14;7.10;99.90
13049;DHT22;6591;51.446;5.404;2022-12-05T16:03:51;7.10;99.90
13049;DHT22;6591;51.446;5.404;2022-12-05T16:06:51;7.10;99.90
13049;DHT22;6591;51.446;5.404;2022-12-05T16:09:23;7.10;99.90
13049;DHT22;6591;51.446;5.404;2022-12-05T16:11:52;6.90;99.90
13049;DHT22;6591;51.446;5.404;2022-12-05T16:14:22;7.10;99.90
13049;DHT22;6591;51.446;5.404;2022-12-05T16:17:16;7.10;99.90
13049;DHT22;6591;51.446;5.404;2022-12-05T16:19:44;7.10;99.90
13049;DHT22;6591;51.446;5.404;2022-12-05T16:24:41;7.10;99.90
13049;DHT22;6591;51.446;5.404;2022-12-05T16:27:22;7.10;99.90
13049;DHT22;6591;51.446;5.404;2022-12-05T16:32:44;7.10;99.90
13049;DHT22;6591;51.446;5.404;2022-12-05T16:35:32;7.10;99.90
13049;DHT22;6591;51.446;5.404;2022-12-05T16:40:56;7.10;99.90
13049;DHT22;6591;51.446;5.404;2022-12-05T16:46:21;7.10;99.90
13049;DHT22;6591;51.446;5.404;2022-12-05T16:54:33;7.10;99.90
13049;DHT22;6591;51.446;5.404;2022-12-05T16:57:00;7.10;99.90
13049;DHT22;6591;51.446;5.404;2022-12-05T16:59:38;7.10;99.90
13049;DHT22;6591;51.446;5.404;2022-12-05T17:02:17;7.10;99.90
13049;DHT22;6591;51.446;5.404;2022-12-05T17:04:44;7.20;99.90
13049;DHT22;6591;51.446;5.404;2022-12-05T17:07:12;8.50;99.90
13049;DHT22;6591;51.446;5.404;2022-12-05T17:09:39;7.20;99.90
13049;DHT22;6591;51.446;5.404;2022-12-05T17:12:14;7.20;99.90
13049;DHT22;6591;51.446;5.404;2022-12-05T17:14:46;7.20;99.90
13049;DHT22;6591;51.446;5.404;2022-12-05T17:17:14;7.20;99.90
13049;DHT22;6591;51.446;5.404;2022-12-05T17:19:41;7.10;99.90
13049;DHT22;6591;51.446;5.404;2022-12-05T17:22:11;7.20;99.90
13049;DHT22;6591;51.446;5.404;2022-12-05T17:24:40;7.20;99.90
13049;DHT22;6591;51.446;5.404;2022-12-05T17:27:11;7.20;99.90
13049;DHT22;6591;51.446;5.404;2022-12-05T17:29:38;7.20;99.90
13049;DHT22;6591;51.446;5.404;2022-12-05T17:32:05;9.40;99.90
13049;DHT22;6591;51.446;5.404;2022-12-05T17:34:32;9.20;99.90
13049;DHT22;6591;51.446;5.404;2022-12-05T17:36:59;7.30;99.90
13049;DHT22;6591;51.446;5.404;2022-12-05T17:39:26;7.30;99.90
13049;DHT22;6591;51.446;5.404;2022-12-05T17:41:54;7.70;99.90
13049;DHT22;6591;51.446;5.404;2022-12-05T17:44:22;8.70;99.90
13049;DHT22;6591;51.446;5.404;2022-12-05T17:46:48;7.30;99.90
13049;DHT22;6591;51.446;5.404;2022-12-05T17:49:16;7.40;99.90
13049;DHT22;6591;51.446;5.404;2022-12-05T17:51:44;9.50;99.90
13049;DHT22;6591;51.446;5.404;2022-12-05T17:54:31;7.40;99.90
13049;DHT22;6591;51.446;5.404;2022-12-05T17:57:01;7.40;99.90
13049;DHT22;6591;51.446;5.404;2022-12-05T17:59:28;7.40;99.90
13049;DHT22;6591;51.446;5.404;2022-12-05T18:01:55;7.40;99.90
13049;DHT22;6591;51.446;5.404;2022-12-05T18:04:21;7.30;99.90
13049;DHT22;6591;51.446;5.404;2022-12-05T18:06:49;7.40;99.90
13049;DHT22;6591;51.446;5.404;2022-12-05T18:09:17;8.70;99.90
13049;DHT22;6591;51.446;5.404;2022-12-05T18:11:44;7.40;99.90
13049;DHT22;6591;51.446;5.404;2022-12-05T18:14:11;7.40;99.90
13049;DHT22;6591;51.446;5.404;2022-12-05T18:16:38;7.40;99.90
13049;DHT22;6591;51.446;5.404;2022-12-05T18:19:05;7.40;99.90
13049;DHT22;6591;51.446;5.404;2022-12-05T18:21:34;7.50;99.90
13049;DHT22;6591;51.446;5.404;2022-12-05T18:24:01;7.40;99.90
13049;DHT22;6591;51.446;5.404;2022-12-05T18:26:28;7.40;99.90
13049;DHT22;6591;51.446;5.404;2022-12-05T18:28:54;8.70;99.90
13049;DHT22;6591;51.446;5.404;2022-12-05T18:31:23;7.40;99.90
13049;DHT22;6591;51.446;5.404;2022-12-05T18:33:50;7.50;99.90
13049;DHT22;6591;51.446;5.404;2022-12-05T18:36:19;7.50;99.90
13049;DHT22;6591;51.446;5.404;2022-12-05T18:38:54;9.20;99.90
13049;DHT22;6591;51.446;5.404;2022-12-05T18:41:23;7.50;99.90
13049;DHT22;6591;51.446;5.404;2022-12-05T18:43:53;7.50;99.90
13049;DHT22;6591;51.446;5.404;2022-12-05T18:46:20;7.50;99.90
13049;DHT22;6591;51.446;5.404;2022-12-05T18:48:46;7.50;99.90
13049;DHT22;6591;51.446;5.404;2022-12-05T18:51:22;7.50;99.90
13049;DHT22;6591;51.446;5.404;2022-12-05T18:53:52;7.50;99.90
13049;DHT22;6591;51.446;5.404;2022-12-05T18:56:28;7.50;99.90
13049;DHT22;6591;51.446;5.404;2022-12-05T18:59:20;7.50;99.90
13049;DHT22;6591;51.446;5.404;2022-12-05T19:01:49;7.50;99.90
13049;DHT22;6591;51.446;5.404;2022-12-05T19:04:18;7.60;99.90
13049;DHT22;6591;51.446;5.404;2022-12-05T19:06:55;7.60;99.90
13049;DHT22;6591;51.446;5.404;2022-12-05T19:09:29;7.60;99.90
13049;DHT22;6591;51.446;5.404;2022-12-05T19:11:58;7.60;99.90
13049;DHT22;6591;51.446;5.404;2022-12-05T19:14:27;7.60;99.90
13049;DHT22;6591;51.446;5.404;2022-12-05T19:16:58;7.60;99.90
13049;DHT22;6591;51.446;5.404;2022-12-05T19:19:27;7.60;99.90
13049;DHT22;6591;51.446;5.404;2022-12-05T19:21:55;7.70;99.90
13049;DHT22;6591;51.446;5.404;2022-12-05T19:24:24;7.70;99.90
13049;DHT22;6591;51.446;5.404;2022-12-05T19:26:51;7.70;99.90
13049;DHT22;6591;51.446;5.404;2022-12-05T19:29:18;7.70;99.90